sensor_id;sensor_type;location;lat;lon;timestamp;P1;durP1;ratioP1;P2;durP2;ratioP2
4210;SDS011;2119;48.828;12.396;2023-02-04T00:02:13;4.87;;;2.50;;
4210;SDS011;2119;48.828;12.396;2023-02-04T00:07:13;5.32;;;1.73;;
4210;SDS011;2119;48.828;12.396;2023-02-04T00:12:16;4.50;;;2.30;;
4210;SDS011;2119;48.828;12.396;2023-02-04T00:17:17;2.37;;;1.60;;
4210;SDS011;2119;48.828;12.396;2023-02-04T00:22:18;5.40;;;2.07;;
4210;SDS011;2119;48.828;12.396;2023-02-04T00:27:19;7.83;;;3.23;;
4210;SDS011;2119;48.828;12.396;2023-02-04T00:32:20;6.07;;;2.85;;
4210;SDS011;2119;48.828;12.396;2023-02-04T00:37:20;2.60;;;1.83;;
4210;SDS011;2119;48.828;12.396;2023-02-04T00:42:21;7.17;;;3.53;;
4210;SDS011;2119;48.828;12.396;2023-02-04T00:47:21;4.00;;;2.25;;
4210;SDS011;2119;48.828;12.396;2023-02-04T00:52:21;5.07;;;1.80;;
4210;SDS011;2119;48.828;12.396;2023-02-04T00:57:21;8.80;;;2.67;;
4210;SDS011;2119;48.828;12.396;2023-02-04T01:02:22;9.02;;;1.90;;
4210;SDS011;2119;48.828;12.396;2023-02-04T01:07:25;7.97;;;2.37;;
4210;SDS011;2119;48.828;12.396;2023-02-04T01:12:26;4.23;;;2.20;;
4210;SDS011;2119;48.828;12.396;2023-02-04T01:17:27;5.40;;;2.60;;
4210;SDS011;2119;48.828;12.396;2023-02-04T01:22:27;10.93;;;2.80;;
4210;SDS011;2119;48.828;12.396;2023-02-04T01:27:28;5.75;;;2.45;;
4210;SDS011;2119;48.828;12.396;2023-02-04T01:32:28;11.82;;;2.05;;
4210;SDS011;2119;48.828;12.396;2023-02-04T01:37:28;5.23;;;1.80;;
4210;SDS011;2119;48.828;12.396;2023-02-04T01:42:28;8.65;;;1.98;;
4210;SDS011;2119;48.828;12.396;2023-02-04T01:47:31;7.38;;;1.92;;
4210;SDS011;2119;48.828;12.396;2023-02-04T01:52:34;4.63;;;2.13;;
4210;SDS011;2119;48.828;12.396;2023-02-04T01:57:35;2.97;;;1.70;;
4210;SDS011;2119;48.828;12.396;2023-02-04T02:02:47;3.60;;;1.83;;
4210;SDS011;2119;48.828;12.396;2023-02-04T02:07:49;7.73;;;2.00;;
4210;SDS011;2119;48.828;12.396;2023-02-04T02:17:54;4.40;;;2.20;;
4210;SDS011;2119;48.828;12.396;2023-02-04T02:22:58;6.73;;;2.00;;
4210;SDS011;2119;48.828;12.396;2023-02-04T02:28:00;3.00;;;1.73;;
4210;SDS011;2119;48.828;12.396;2023-02-04T02:33:00;3.93;;;1.77;;
4210;SDS011;2119;48.828;12.396;2023-02-04T02:38:02;8.43;;;2.00;;
4210;SDS011;2119;48.828;12.396;2023-02-04T02:43:02;6.30;;;1.77;;
4210;SDS011;2119;48.828;12.396;2023-02-04T02:48:11;5.20;;;2.07;;
4210;SDS011;2119;48.828;12.396;2023-02-04T02:53:12;7.50;;;1.50;;
4210;SDS011;2119;48.828;12.396;2023-02-04T02:58:31;11.10;;;1.90;;
4210;SDS011;2119;48.828;12.396;2023-02-04T03:03:32;9.80;;;2.40;;
4210;SDS011;2119;48.828;12.396;2023-02-04T03:08:33;5.80;;;1.63;;
4210;SDS011;2119;48.828;12.396;2023-02-04T03:13:34;8.33;;;1.80;;
4210;SDS011;2119;48.828;12.396;2023-02-04T03:18:35;4.40;;;1.73;;
4210;SDS011;2119;48.828;12.396;2023-02-04T03:23:36;4.97;;;1.60;;
4210;SDS011;2119;48.828;12.396;2023-02-04T03:28:39;5.33;;;2.50;;
4210;SDS011;2119;48.828;12.396;2023-02-04T03:33:40;3.10;;;2.00;;
4210;SDS011;2119;48.828;12.396;2023-02-04T03:38:43;13.03;;;2.27;;
4210;SDS011;2119;48.828;12.396;2023-02-04T03:43:43;6.57;;;2.10;;
4210;SDS011;2119;48.828;12.396;2023-02-04T03:48:45;5.53;;;2.40;;
4210;SDS011;2119;48.828;12.396;2023-02-04T03:53:45;7.00;;;2.20;;
4210;SDS011;2119;48.828;12.396;2023-02-04T03:58:45;3.92;;;2.03;;
4210;SDS011;2119;48.828;12.396;2023-02-04T04:03:45;4.33;;;2.17;;
4210;SDS011;2119;48.828;12.396;2023-02-04T04:08:46;5.50;;;1.87;;
4210;SDS011;2119;48.828;12.396;2023-02-04T04:13:46;4.32;;;1.92;;
4210;SDS011;2119;48.828;12.396;2023-02-04T04:18:47;4.13;;;1.88;;
4210;SDS011;2119;48.828;12.396;2023-02-04T04:23:49;10.30;;;1.70;;
4210;SDS011;2119;48.828;12.396;2023-02-04T04:28:51;6.80;;;1.80;;
4210;SDS011;2119;48.828;12.396;2023-02-04T04:33:58;8.20;;;1.60;;
4210;SDS011;2119;48.828;12.396;2023-02-04T04:38:59;5.67;;;1.90;;
4210;SDS011;2119;48.828;12.396;2023-02-04T04:43:59;5.13;;;1.90;;
4210;SDS011;2119;48.828;12.396;2023-02-04T04:48:59;4.53;;;1.70;;
4210;SDS011;2119;48.828;12.396;2023-02-04T04:54:01;5.13;;;1.70;;
4210;SDS011;2119;48.828;12.396;2023-02-04T04:59:02;2.43;;;1.90;;
4210;SDS011;2119;48.828;12.396;2023-02-04T05:04:05;10.87;;;2.80;;
4210;SDS011;2119;48.828;12.396;2023-02-04T05:09:05;6.40;;;2.07;;
4210;SDS011;2119;48.828;12.396;2023-02-04T05:14:05;7.95;;;2.33;;
4210;SDS011;2119;48.828;12.396;2023-02-04T05:19:06;5.20;;;1.80;;
4210;SDS011;2119;48.828;12.396;2023-02-04T05:24:07;5.57;;;2.73;;
4210;SDS011;2119;48.828;12.396;2023-02-04T05:29:07;3.70;;;1.60;;
4210;SDS011;2119;48.828;12.396;2023-02-04T05:34:07;6.18;;;1.65;;
4210;SDS011;2119;48.828;12.396;2023-02-04T05:39:08;3.77;;;1.60;;
4210;SDS011;2119;48.828;12.396;2023-02-04T05:44:10;5.70;;;1.80;;
4210;SDS011;2119;48.828;12.396;2023-02-04T05:49:12;2.10;;;1.17;;
4210;SDS011;2119;48.828;12.396;2023-02-04T05:54:12;3.47;;;1.00;;
4210;SDS011;2119;48.828;12.396;2023-02-04T05:59:23;3.43;;;1.10;;
4210;SDS011;2119;48.828;12.396;2023-02-04T06:04:23;2.03;;;1.00;;
4210;SDS011;2119;48.828;12.396;2023-02-04T06:09:25;2.10;;;0.70;;
4210;SDS011;2119;48.828;12.396;2023-02-04T06:14:26;2.00;;;0.70;;
4210;SDS011;2119;48.828;12.396;2023-02-04T06:19:26;1.47;;;0.70;;
4210;SDS011;2119;48.828;12.396;2023-02-04T06:24:30;3.70;;;1.27;;
4210;SDS011;2119;48.828;12.396;2023-02-04T06:29:30;1.00;;;0.70;;
4210;SDS011;2119;48.828;12.396;2023-02-04T06:34:32;1.00;;;0.60;;
4210;SDS011;2119;48.828;12.396;2023-02-04T06:39:38;1.40;;;1.07;;
4210;SDS011;2119;48.828;12.396;2023-02-04T06:44:38;2.83;;;0.90;;
4210;SDS011;2119;48.828;12.396;2023-02-04T06:49:41;0.98;;;0.80;;
4210;SDS011;2119;48.828;12.396;2023-02-04T06:54:44;2.00;;;0.90;;
4210;SDS011;2119;48.828;12.396;2023-02-04T06:59:44;1.07;;;0.87;;
4210;SDS011;2119;48.828;12.396;2023-02-04T07:04:46;1.00;;;0.80;;
4210;SDS011;2119;48.828;12.396;2023-02-04T07:09:46;1.40;;;0.95;;
4210;SDS011;2119;48.828;12.396;2023-02-04T07:14:46;1.63;;;0.90;;
4210;SDS011;2119;48.828;12.396;2023-02-04T07:19:46;1.20;;;1.00;;
4210;SDS011;2119;48.828;12.396;2023-02-04T07:24:47;1.50;;;1.30;;
4210;SDS011;2119;48.828;12.396;2023-02-04T07:29:47;1.00;;;0.90;;
4210;SDS011;2119;48.828;12.396;2023-02-04T07:34:47;1.83;;;1.10;;
4210;SDS011;2119;48.828;12.396;2023-02-04T07:39:47;1.45;;;1.00;;
4210;SDS011;2119;48.828;12.396;2023-02-04T07:44:48;1.20;;;1.00;;
4210;SDS011;2119;48.828;12.396;2023-02-04T07:49:48;1.30;;;1.20;;
4210;SDS011;2119;48.828;12.396;2023-02-04T07:54:49;1.27;;;1.15;;
4210;SDS011;2119;48.828;12.396;2023-02-04T07:59:53;1.50;;;1.40;;
4210;SDS011;2119;48.828;12.396;2023-02-04T08:04:53;1.40;;;1.30;;
4210;SDS011;2119;48.828;12.396;2023-02-04T08:09:53;1.17;;;0.98;;
4210;SDS011;2119;48.828;12.396;2023-02-04T08:14:53;1.40;;;1.20;;
4210;SDS011;2119;48.828;12.396;2023-02-04T08:19:54;1.42;;;1.33;;
4210;SDS011;2119;48.828;12.396;2023-02-04T08:24:54;1.30;;;1.20;;
4210;SDS011;2119;48.828;12.396;2023-02-04T08:29:54;1.23;;;1.13;;
4210;SDS011;2119;48.828;12.396;2023-02-04T08:34:55;1.47;;;1.10;;
4210;SDS011;2119;48.828;12.396;2023-02-04T08:39:56;1.13;;;0.97;;
4210;SDS011;2119;48.828;12.396;2023-02-04T08:44:56;1.65;;;1.48;;
4210;SDS011;2119;48.828;12.396;2023-02-04T08:49:58;1.30;;;1.20;;
4210;SDS011;2119;48.828;12.396;2023-02-04T08:54:58;1.00;;;0.90;;
4210;SDS011;2119;48.828;12.396;2023-02-04T08:59:59;1.13;;;1.00;;
4210;SDS011;2119;48.828;12.396;2023-02-04T09:05:00;1.20;;;1.10;;
4210;SDS011;2119;48.828;12.396;2023-02-04T09:10:01;1.50;;;1.00;;
4210;SDS011;2119;48.828;12.396;2023-02-04T09:15:02;1.10;;;1.00;;
4210;SDS011;2119;48.828;12.396;2023-02-04T09:20:02;1.30;;;1.20;;
4210;SDS011;2119;48.828;12.396;2023-02-04T09:25:03;1.20;;;1.10;;
4210;SDS011;2119;48.828;12.396;2023-02-04T09:30:03;1.10;;;1.00;;
4210;SDS011;2119;48.828;12.396;2023-02-04T09:35:04;1.20;;;1.10;;
4210;SDS011;2119;48.828;12.396;2023-02-04T09:40:04;1.60;;;1.50;;
4210;SDS011;2119;48.828;12.396;2023-02-04T09:45:05;1.40;;;1.20;;
4210;SDS011;2119;48.828;12.396;2023-02-04T09:50:08;1.40;;;1.20;;
4210;SDS011;2119;48.828;12.396;2023-02-04T09:55:16;1.50;;;1.40;;
4210;SDS011;2119;48.828;12.396;2023-02-04T10:05:18;2.47;;;1.50;;
4210;SDS011;2119;48.828;12.396;2023-02-04T10:10:20;1.10;;;1.00;;
4210;SDS011;2119;48.828;12.396;2023-02-04T10:15:22;1.30;;;1.20;;
4210;SDS011;2119;48.828;12.396;2023-02-04T10:20:24;1.20;;;1.03;;
4210;SDS011;2119;48.828;12.396;2023-02-04T10:25:25;1.90;;;1.80;;
4210;SDS011;2119;48.828;12.396;2023-02-04T10:30:36;1.63;;;1.53;;
4210;SDS011;2119;48.828;12.396;2023-02-04T10:35:48;2.60;;;1.20;;
4210;SDS011;2119;48.828;12.396;2023-02-04T10:41:02;3.60;;;2.13;;
4210;SDS011;2119;48.828;12.396;2023-02-04T10:46:04;4.50;;;3.37;;
4210;SDS011;2119;48.828;12.396;2023-02-04T10:51:04;7.00;;;3.17;;
4210;SDS011;2119;48.828;12.396;2023-02-04T10:56:38;2.92;;;1.63;;
4210;SDS011;2119;48.828;12.396;2023-02-04T11:01:31;5.63;;;2.70;;
4210;SDS011;2119;48.828;12.396;2023-02-04T11:06:31;5.23;;;2.03;;
4210;SDS011;2119;48.828;12.396;2023-02-04T11:11:32;4.60;;;2.00;;
4210;SDS011;2119;48.828;12.396;2023-02-04T11:16:32;7.30;;;3.67;;
4210;SDS011;2119;48.828;12.396;2023-02-04T11:26:35;1.30;;;1.07;;
4210;SDS011;2119;48.828;12.396;2023-02-04T11:31:43;1.90;;;1.70;;
4210;SDS011;2119;48.828;12.396;2023-02-04T11:42:12;1.00;;;0.90;;
4210;SDS011;2119;48.828;12.396;2023-02-04T11:47:17;1.60;;;1.17;;
4210;SDS011;2119;48.828;12.396;2023-02-04T11:52:20;1.13;;;0.90;;
4210;SDS011;2119;48.828;12.396;2023-02-04T11:57:20;1.60;;;1.50;;
4210;SDS011;2119;48.828;12.396;2023-02-04T12:02:23;1.20;;;1.10;;
4210;SDS011;2119;48.828;12.396;2023-02-04T12:07:28;1.20;;;1.10;;
4210;SDS011;2119;48.828;12.396;2023-02-04T12:12:29;1.50;;;1.30;;
4210;SDS011;2119;48.828;12.396;2023-02-04T12:17:30;2.03;;;1.30;;
4210;SDS011;2119;48.828;12.396;2023-02-04T12:22:30;1.05;;;0.90;;
4210;SDS011;2119;48.828;12.396;2023-02-04T12:27:30;1.23;;;1.13;;
4210;SDS011;2119;48.828;12.396;2023-02-04T12:32:30;1.00;;;0.80;;
4210;SDS011;2119;48.828;12.396;2023-02-04T12:37:31;1.98;;;1.00;;
4210;SDS011;2119;48.828;12.396;2023-02-04T12:42:31;1.20;;;1.10;;
4210;SDS011;2119;48.828;12.396;2023-02-04T12:47:31;1.10;;;0.90;;
4210;SDS011;2119;48.828;12.396;2023-02-04T12:52:32;1.27;;;1.02;;
4210;SDS011;2119;48.828;12.396;2023-02-04T12:57:32;4.90;;;2.33;;
4210;SDS011;2119;48.828;12.396;2023-02-04T13:02:33;1.83;;;1.20;;
4210;SDS011;2119;48.828;12.396;2023-02-04T13:07:33;2.30;;;1.27;;
4210;SDS011;2119;48.828;12.396;2023-02-04T13:12:33;1.30;;;1.13;;
4210;SDS011;2119;48.828;12.396;2023-02-04T13:17:33;1.70;;;1.40;;
4210;SDS011;2119;48.828;12.396;2023-02-04T13:22:34;1.17;;;1.08;;
4210;SDS011;2119;48.828;12.396;2023-02-04T13:27:34;1.52;;;1.40;;
4210;SDS011;2119;48.828;12.396;2023-02-04T13:32:35;6.63;;;5.93;;
4210;SDS011;2119;48.828;12.396;2023-02-04T13:37:35;2.15;;;2.00;;
4210;SDS011;2119;48.828;12.396;2023-02-04T13:42:37;2.20;;;2.00;;
4210;SDS011;2119;48.828;12.396;2023-02-04T13:47:37;2.15;;;1.95;;
4210;SDS011;2119;48.828;12.396;2023-02-04T13:52:38;2.50;;;2.30;;
4210;SDS011;2119;48.828;12.396;2023-02-04T13:57:39;6.10;;;4.10;;
4210;SDS011;2119;48.828;12.396;2023-02-04T14:02:40;1.87;;;1.70;;
4210;SDS011;2119;48.828;12.396;2023-02-04T14:07:41;2.17;;;1.90;;
4210;SDS011;2119;48.828;12.396;2023-02-04T14:12:42;1.58;;;1.15;;
4210;SDS011;2119;48.828;12.396;2023-02-04T14:17:42;40.80;;;15.20;;
4210;SDS011;2119;48.828;12.396;2023-02-04T14:22:42;4.05;;;2.97;;
4210;SDS011;2119;48.828;12.396;2023-02-04T14:27:42;1.92;;;1.73;;
4210;SDS011;2119;48.828;12.396;2023-02-04T14:32:43;1.23;;;1.03;;
4210;SDS011;2119;48.828;12.396;2023-02-04T14:37:43;1.37;;;1.20;;
4210;SDS011;2119;48.828;12.396;2023-02-04T14:42:44;1.20;;;1.10;;
4210;SDS011;2119;48.828;12.396;2023-02-04T14:47:46;1.93;;;1.17;;
4210;SDS011;2119;48.828;12.396;2023-02-04T14:52:46;1.20;;;1.10;;
4210;SDS011;2119;48.828;12.396;2023-02-04T14:57:55;3.03;;;1.23;;
4210;SDS011;2119;48.828;12.396;2023-02-04T15:03:00;1.30;;;1.07;;
4210;SDS011;2119;48.828;12.396;2023-02-04T15:08:00;1.87;;;1.30;;
4210;SDS011;2119;48.828;12.396;2023-02-04T15:13:01;2.20;;;1.67;;
4210;SDS011;2119;48.828;12.396;2023-02-04T15:18:01;8.93;;;3.45;;
4210;SDS011;2119;48.828;12.396;2023-02-04T15:23:01;1.70;;;1.60;;
4210;SDS011;2119;48.828;12.396;2023-02-04T15:28:01;1.55;;;1.40;;
4210;SDS011;2119;48.828;12.396;2023-02-04T15:33:02;1.30;;;1.20;;
4210;SDS011;2119;48.828;12.396;2023-02-04T15:38:02;1.53;;;1.20;;
4210;SDS011;2119;48.828;12.396;2023-02-04T15:43:02;1.00;;;0.90;;
4210;SDS011;2119;48.828;12.396;2023-02-04T15:48:03;1.58;;;1.15;;
4210;SDS011;2119;48.828;12.396;2023-02-04T15:53:03;3.00;;;1.70;;
4210;SDS011;2119;48.828;12.396;2023-02-04T15:58:04;1.70;;;1.23;;
4210;SDS011;2119;48.828;12.396;2023-02-04T16:03:04;1.20;;;1.00;;
4210;SDS011;2119;48.828;12.396;2023-02-04T16:08:06;1.40;;;1.25;;
4210;SDS011;2119;48.828;12.396;2023-02-04T16:13:06;1.37;;;1.20;;
4210;SDS011;2119;48.828;12.396;2023-02-04T16:18:06;26.50;;;13.07;;
4210;SDS011;2119;48.828;12.396;2023-02-04T16:23:07;4.10;;;3.73;;
4210;SDS011;2119;48.828;12.396;2023-02-04T16:28:07;2.08;;;1.83;;
4210;SDS011;2119;48.828;12.396;2023-02-04T16:33:07;31.48;;;11.20;;
4210;SDS011;2119;48.828;12.396;2023-02-04T16:38:07;7.67;;;4.13;;
4210;SDS011;2119;48.828;12.396;2023-02-04T16:43:17;14.85;;;5.70;;
4210;SDS011;2119;48.828;12.396;2023-02-04T16:48:17;6.10;;;4.03;;
4210;SDS011;2119;48.828;12.396;2023-02-04T16:53:17;2.60;;;2.40;;
4210;SDS011;2119;48.828;12.396;2023-02-04T16:58:18;2.40;;;2.20;;
4210;SDS011;2119;48.828;12.396;2023-02-04T17:03:18;1.50;;;1.40;;
4210;SDS011;2119;48.828;12.396;2023-02-04T17:08:19;2.40;;;2.20;;
4210;SDS011;2119;48.828;12.396;2023-02-04T17:13:19;1.92;;;1.73;;
4210;SDS011;2119;48.828;12.396;2023-02-04T17:18:19;1.98;;;1.80;;
4210;SDS011;2119;48.828;12.396;2023-02-04T17:23:19;1.67;;;1.30;;
4210;SDS011;2119;48.828;12.396;2023-02-04T17:28:20;2.15;;;1.95;;
4210;SDS011;2119;48.828;12.396;2023-02-04T17:33:20;9.43;;;5.80;;
4210;SDS011;2119;48.828;12.396;2023-02-04T17:38:20;1.73;;;1.63;;
4210;SDS011;2119;48.828;12.396;2023-02-04T17:43:21;1.40;;;1.30;;
4210;SDS011;2119;48.828;12.396;2023-02-04T17:48:22;1.50;;;1.40;;
4210;SDS011;2119;48.828;12.396;2023-02-04T17:53:22;1.60;;;1.50;;
4210;SDS011;2119;48.828;12.396;2023-02-04T17:58:24;1.93;;;1.80;;
4210;SDS011;2119;48.828;12.396;2023-02-04T18:03:27;1.90;;;1.57;;
4210;SDS011;2119;48.828;12.396;2023-02-04T18:08:27;2.20;;;1.90;;
4210;SDS011;2119;48.828;12.396;2023-02-04T18:13:32;1.77;;;1.67;;
4210;SDS011;2119;48.828;12.396;2023-02-04T18:18:37;2.17;;;1.80;;
4210;SDS011;2119;48.828;12.396;2023-02-04T18:23:37;1.70;;;1.60;;
4210;SDS011;2119;48.828;12.396;2023-02-04T18:28:38;5.03;;;3.05;;
4210;SDS011;2119;48.828;12.396;2023-02-04T18:33:41;2.10;;;1.90;;
4210;SDS011;2119;48.828;12.396;2023-02-04T18:38:44;14.83;;;9.13;;
4210;SDS011;2119;48.828;12.396;2023-02-04T18:43:44;32.63;;;15.10;;
4210;SDS011;2119;48.828;12.396;2023-02-04T18:54:00;11.27;;;7.07;;
4210;SDS011;2119;48.828;12.396;2023-02-04T18:59:01;10.80;;;6.60;;
4210;SDS011;2119;48.828;12.396;2023-02-04T19:04:05;18.70;;;10.50;;
4210;SDS011;2119;48.828;12.396;2023-02-04T19:19:33;15.80;;;8.03;;
4210;SDS011;2119;48.828;12.396;2023-02-04T19:24:34;6.20;;;5.10;;
4210;SDS011;2119;48.828;12.396;2023-02-04T19:29:40;4.75;;;4.03;;
4210;SDS011;2119;48.828;12.396;2023-02-04T19:34:41;5.20;;;4.13;;
4210;SDS011;2119;48.828;12.396;2023-02-04T19:39:41;4.78;;;4.28;;
4210;SDS011;2119;48.828;12.396;2023-02-04T19:44:42;5.10;;;4.00;;
4210;SDS011;2119;48.828;12.396;2023-02-04T19:49:42;10.07;;;4.07;;
4210;SDS011;2119;48.828;12.396;2023-02-04T19:54:42;26.60;;;16.95;;
4210;SDS011;2119;48.828;12.396;2023-02-04T19:59:43;7.38;;;4.97;;
4210;SDS011;2119;48.828;12.396;2023-02-04T20:04:44;6.60;;;5.13;;
4210;SDS011;2119;48.828;12.396;2023-02-04T20:09:44;7.10;;;5.60;;
4210;SDS011;2119;48.828;12.396;2023-02-04T20:14:49;7.60;;;6.20;;
4210;SDS011;2119;48.828;12.396;2023-02-04T20:19:51;14.93;;;9.73;;
4210;SDS011;2119;48.828;12.396;2023-02-04T20:24:56;21.17;;;13.20;;
4210;SDS011;2119;48.828;12.396;2023-02-04T20:29:59;18.03;;;10.27;;
4210;SDS011;2119;48.828;12.396;2023-02-04T20:50:37;23.60;;;14.93;;
4210;SDS011;2119;48.828;12.396;2023-02-04T20:55:38;16.20;;;11.00;;
4210;SDS011;2119;48.828;12.396;2023-02-04T21:00:39;6.90;;;5.60;;
4210;SDS011;2119;48.828;12.396;2023-02-04T21:05:39;9.27;;;6.53;;
4210;SDS011;2119;48.828;12.396;2023-02-04T21:10:39;12.23;;;9.60;;
4210;SDS011;2119;48.828;12.396;2023-02-04T21:15:40;16.48;;;11.00;;
4210;SDS011;2119;48.828;12.396;2023-02-04T21:20:40;16.50;;;11.35;;
4210;SDS011;2119;48.828;12.396;2023-02-04T21:25:40;16.80;;;12.30;;
4210;SDS011;2119;48.828;12.396;2023-02-04T21:30:40;18.02;;;11.75;;
4210;SDS011;2119;48.828;12.396;2023-02-04T21:35:41;12.43;;;8.73;;
4210;SDS011;2119;48.828;12.396;2023-02-04T21:40:41;6.45;;;5.43;;
4210;SDS011;2119;48.828;12.396;2023-02-04T21:45:41;5.38;;;4.95;;
4210;SDS011;2119;48.828;12.396;2023-02-04T21:50:41;5.63;;;4.82;;
4210;SDS011;2119;48.828;12.396;2023-02-04T21:55:42;6.23;;;5.63;;
4210;SDS011;2119;48.828;12.396;2023-02-04T22:00:42;11.07;;;7.13;;
4210;SDS011;2119;48.828;12.396;2023-02-04T22:05:43;9.60;;;7.70;;
4210;SDS011;2119;48.828;12.396;2023-02-04T22:10:43;9.30;;;7.30;;
4210;SDS011;2119;48.828;12.396;2023-02-04T22:15:43;7.90;;;7.00;;
4210;SDS011;2119;48.828;12.396;2023-02-04T22:20:44;11.15;;;8.02;;
4210;SDS011;2119;48.828;12.396;2023-02-04T22:25:44;11.25;;;8.43;;
4210;SDS011;2119;48.828;12.396;2023-02-04T22:30:45;15.38;;;8.82;;
4210;SDS011;2119;48.828;12.396;2023-02-04T22:35:45;17.37;;;10.03;;
4210;SDS011;2119;48.828;12.396;2023-02-04T22:40:51;12.73;;;9.77;;
4210;SDS011;2119;48.828;12.396;2023-02-04T22:45:51;15.77;;;9.47;;
4210;SDS011;2119;48.828;12.396;2023-02-04T22:50:51;15.23;;;10.35;;
4210;SDS011;2119;48.828;12.396;2023-02-04T22:55:52;16.70;;;10.02;;
4210;SDS011;2119;48.828;12.396;2023-02-04T23:00:52;13.90;;;8.67;;
4210;SDS011;2119;48.828;12.396;2023-02-04T23:05:52;13.50;;;9.60;;
4210;SDS011;2119;48.828;12.396;2023-02-04T23:10:52;12.38;;;8.80;;
4210;SDS011;2119;48.828;12.396;2023-02-04T23:15:56;9.27;;;6.60;;
4210;SDS011;2119;48.828;12.396;2023-02-04T23:20:56;9.13;;;6.40;;
4210;SDS011;2119;48.828;12.396;2023-02-04T23:25:56;11.32;;;6.80;;
4210;SDS011;2119;48.828;12.396;2023-02-04T23:30:59;7.77;;;6.30;;
4210;SDS011;2119;48.828;12.396;2023-02-04T23:35:59;13.73;;;7.17;;
4210;SDS011;2119;48.828;12.396;2023-02-04T23:41:00;17.53;;;8.07;;
4210;SDS011;2119;48.828;12.396;2023-02-04T23:46:00;30.92;;;13.23;;
4210;SDS011;2119;48.828;12.396;2023-02-04T23:51:02;28.92;;;12.50;;
4210;SDS011;2119;48.828;12.396;2023-02-04T23:56:02;21.07;;;12.17;;
